sensor_id;sensor_type;location;lat;lon;timestamp;P1;durP1;ratioP1;P2;durP2;ratioP2
19747;SDS011;10032;51.386;12.516;2023-07-13T00:00:23;1.95;;;1.20;;
19747;SDS011;10032;51.386;12.516;2023-07-13T00:02:49;1.65;;;1.45;;
19747;SDS011;10032;51.386;12.516;2023-07-13T00:05:14;3.65;;;2.00;;
19747;SDS011;10032;51.386;12.516;2023-07-13T00:07:40;2.03;;;1.50;;
19747;SDS011;10032;51.386;12.516;2023-07-13T00:10:05;1.88;;;1.25;;
19747;SDS011;10032;51.386;12.516;2023-07-13T00:12:33;1.20;;;1.20;;
19747;SDS011;10032;51.386;12.516;2023-07-13T00:15:02;1.67;;;1.40;;
19747;SDS011;10032;51.386;12.516;2023-07-13T00:17:31;1.70;;;1.38;;
19747;SDS011;10032;51.386;12.516;2023-07-13T00:19:56;1.27;;;1.17;;
19747;SDS011;10032;51.386;12.516;2023-07-13T00:22:23;1.50;;;1.40;;
19747;SDS011;10032;51.386;12.516;2023-07-13T00:24:51;1.45;;;1.33;;
19747;SDS011;10032;51.386;12.516;2023-07-13T00:27:17;1.58;;;1.48;;
19747;SDS011;10032;51.386;12.516;2023-07-13T00:29:43;1.80;;;1.70;;
19747;SDS011;10032;51.386;12.516;2023-07-13T00:32:09;1.38;;;1.27;;
19747;SDS011;10032;51.386;12.516;2023-07-13T00:34:36;1.65;;;1.55;;
19747;SDS011;10032;51.386;12.516;2023-07-13T00:37:02;1.83;;;1.67;;
19747;SDS011;10032;51.386;12.516;2023-07-13T00:39:28;2.33;;;1.40;;
19747;SDS011;10032;51.386;12.516;2023-07-13T00:41:53;2.22;;;1.33;;
19747;SDS011;10032;51.386;12.516;2023-07-13T00:44:19;1.35;;;1.25;;
19747;SDS011;10032;51.386;12.516;2023-07-13T00:46:48;1.83;;;1.20;;
19747;SDS011;10032;51.386;12.516;2023-07-13T00:49:15;1.77;;;1.50;;
19747;SDS011;10032;51.386;12.516;2023-07-13T00:51:58;1.92;;;1.80;;
19747;SDS011;10032;51.386;12.516;2023-07-13T00:54:41;1.45;;;1.35;;
19747;SDS011;10032;51.386;12.516;2023-07-13T00:57:11;1.58;;;1.48;;
19747;SDS011;10032;51.386;12.516;2023-07-13T00:59:40;1.60;;;1.50;;
19747;SDS011;10032;51.386;12.516;2023-07-13T01:02:08;1.50;;;1.40;;
19747;SDS011;10032;51.386;12.516;2023-07-13T01:04:34;8.07;;;2.15;;
19747;SDS011;10032;51.386;12.516;2023-07-13T01:06:59;1.60;;;1.50;;
19747;SDS011;10032;51.386;12.516;2023-07-13T01:09:26;2.67;;;1.20;;
19747;SDS011;10032;51.386;12.516;2023-07-13T01:11:52;1.35;;;1.25;;
19747;SDS011;10032;51.386;12.516;2023-07-13T01:14:17;1.35;;;1.25;;
19747;SDS011;10032;51.386;12.516;2023-07-13T01:16:43;2.22;;;1.92;;
19747;SDS011;10032;51.386;12.516;2023-07-13T01:19:35;1.90;;;1.80;;
19747;SDS011;10032;51.386;12.516;2023-07-13T01:22:03;2.35;;;1.52;;
19747;SDS011;10032;51.386;12.516;2023-07-13T01:24:34;7.00;;;2.13;;
19747;SDS011;10032;51.386;12.516;2023-07-13T01:27:01;2.53;;;1.45;;
19747;SDS011;10032;51.386;12.516;2023-07-13T01:29:27;4.35;;;1.73;;
19747;SDS011;10032;51.386;12.516;2023-07-13T01:31:52;1.70;;;1.58;;
19747;SDS011;10032;51.386;12.516;2023-07-13T01:34:18;1.92;;;1.60;;
19747;SDS011;10032;51.386;12.516;2023-07-13T01:36:43;1.70;;;1.60;;
19747;SDS011;10032;51.386;12.516;2023-07-13T01:39:09;2.70;;;1.50;;
19747;SDS011;10032;51.386;12.516;2023-07-13T01:41:34;2.55;;;1.90;;
19747;SDS011;10032;51.386;12.516;2023-07-13T01:43:59;2.60;;;1.30;;
19747;SDS011;10032;51.386;12.516;2023-07-13T01:46:25;2.40;;;1.73;;
19747;SDS011;10032;51.386;12.516;2023-07-13T01:48:51;3.45;;;1.77;;
19747;SDS011;10032;51.386;12.516;2023-07-13T01:51:18;2.45;;;1.80;;
19747;SDS011;10032;51.386;12.516;2023-07-13T01:53:44;2.53;;;1.67;;
19747;SDS011;10032;51.386;12.516;2023-07-13T01:56:10;2.58;;;1.50;;
19747;SDS011;10032;51.386;12.516;2023-07-13T01:58:35;4.30;;;1.77;;
19747;SDS011;10032;51.386;12.516;2023-07-13T02:01:00;4.15;;;1.50;;
19747;SDS011;10032;51.386;12.516;2023-07-13T02:03:26;1.70;;;1.60;;
19747;SDS011;10032;51.386;12.516;2023-07-13T02:05:51;2.97;;;2.17;;
19747;SDS011;10032;51.386;12.516;2023-07-13T02:08:17;2.67;;;1.63;;
19747;SDS011;10032;51.386;12.516;2023-07-13T02:10:43;1.48;;;1.40;;
19747;SDS011;10032;51.386;12.516;2023-07-13T02:13:08;4.32;;;1.90;;
19747;SDS011;10032;51.386;12.516;2023-07-13T02:15:33;2.03;;;1.83;;
19747;SDS011;10032;51.386;12.516;2023-07-13T02:17:59;3.45;;;1.63;;
19747;SDS011;10032;51.386;12.516;2023-07-13T02:20:24;2.47;;;1.92;;
19747;SDS011;10032;51.386;12.516;2023-07-13T02:22:51;2.17;;;1.58;;
19747;SDS011;10032;51.386;12.516;2023-07-13T02:25:17;1.83;;;1.70;;
19747;SDS011;10032;51.386;12.516;2023-07-13T02:27:42;2.13;;;2.03;;
19747;SDS011;10032;51.386;12.516;2023-07-13T02:30:08;2.03;;;1.77;;
19747;SDS011;10032;51.386;12.516;2023-07-13T02:32:34;3.65;;;1.88;;
19747;SDS011;10032;51.386;12.516;2023-07-13T02:35:00;1.77;;;1.67;;
19747;SDS011;10032;51.386;12.516;2023-07-13T02:37:25;1.88;;;1.77;;
19747;SDS011;10032;51.386;12.516;2023-07-13T02:39:51;2.00;;;1.83;;
19747;SDS011;10032;51.386;12.516;2023-07-13T02:42:16;2.13;;;1.92;;
19747;SDS011;10032;51.386;12.516;2023-07-13T02:44:42;2.45;;;1.58;;
19747;SDS011;10032;51.386;12.516;2023-07-13T02:47:07;1.88;;;1.70;;
19747;SDS011;10032;51.386;12.516;2023-07-13T02:49:32;5.65;;;2.00;;
19747;SDS011;10032;51.386;12.516;2023-07-13T02:51:58;2.17;;;1.60;;
19747;SDS011;10032;51.386;12.516;2023-07-13T02:54:23;1.95;;;1.65;;
19747;SDS011;10032;51.386;12.516;2023-07-13T02:56:48;3.75;;;1.75;;
19747;SDS011;10032;51.386;12.516;2023-07-13T02:59:14;2.85;;;1.95;;
19747;SDS011;10032;51.386;12.516;2023-07-13T03:01:39;3.05;;;1.63;;
19747;SDS011;10032;51.386;12.516;2023-07-13T03:04:05;2.67;;;1.77;;
19747;SDS011;10032;51.386;12.516;2023-07-13T03:06:31;2.72;;;1.90;;
19747;SDS011;10032;51.386;12.516;2023-07-13T03:08:58;5.43;;;1.88;;
19747;SDS011;10032;51.386;12.516;2023-07-13T03:11:25;2.83;;;1.90;;
19747;SDS011;10032;51.386;12.516;2023-07-13T03:13:51;1.83;;;1.70;;
19747;SDS011;10032;51.386;12.516;2023-07-13T03:16:17;2.53;;;1.90;;
19747;SDS011;10032;51.386;12.516;2023-07-13T03:18:42;2.20;;;1.80;;
19747;SDS011;10032;51.386;12.516;2023-07-13T03:21:08;3.00;;;1.80;;
19747;SDS011;10032;51.386;12.516;2023-07-13T03:23:34;3.63;;;2.10;;
19747;SDS011;10032;51.386;12.516;2023-07-13T03:26:03;2.67;;;1.67;;
19747;SDS011;10032;51.386;12.516;2023-07-13T03:28:30;1.95;;;1.85;;
19747;SDS011;10032;51.386;12.516;2023-07-13T03:31:00;1.90;;;1.80;;
19747;SDS011;10032;51.386;12.516;2023-07-13T03:33:32;4.75;;;2.30;;
19747;SDS011;10032;51.386;12.516;2023-07-13T03:35:58;3.65;;;2.47;;
19747;SDS011;10032;51.386;12.516;2023-07-13T03:38:23;4.50;;;2.10;;
19747;SDS011;10032;51.386;12.516;2023-07-13T03:40:49;2.20;;;2.10;;
19747;SDS011;10032;51.386;12.516;2023-07-13T03:43:14;4.22;;;2.80;;
19747;SDS011;10032;51.386;12.516;2023-07-13T03:45:40;2.30;;;2.10;;
19747;SDS011;10032;51.386;12.516;2023-07-13T03:48:05;3.22;;;2.20;;
19747;SDS011;10032;51.386;12.516;2023-07-13T03:50:31;2.58;;;2.38;;
19747;SDS011;10032;51.386;12.516;2023-07-13T03:52:59;2.92;;;1.95;;
19747;SDS011;10032;51.386;12.516;2023-07-13T03:55:25;2.50;;;2.30;;
19747;SDS011;10032;51.386;12.516;2023-07-13T03:57:53;5.10;;;2.00;;
19747;SDS011;10032;51.386;12.516;2023-07-13T04:00:22;2.63;;;2.30;;
19747;SDS011;10032;51.386;12.516;2023-07-13T04:02:47;2.60;;;2.20;;
19747;SDS011;10032;51.386;12.516;2023-07-13T04:05:14;4.75;;;2.50;;
19747;SDS011;10032;51.386;12.516;2023-07-13T04:07:40;2.17;;;2.00;;
19747;SDS011;10032;51.386;12.516;2023-07-13T04:10:06;2.60;;;2.40;;
19747;SDS011;10032;51.386;12.516;2023-07-13T04:12:31;2.42;;;2.22;;
19747;SDS011;10032;51.386;12.516;2023-07-13T04:14:57;3.63;;;2.22;;
19747;SDS011;10032;51.386;12.516;2023-07-13T04:17:22;2.58;;;2.28;;
19747;SDS011;10032;51.386;12.516;2023-07-13T04:19:47;2.10;;;1.92;;
19747;SDS011;10032;51.386;12.516;2023-07-13T04:22:14;4.38;;;2.50;;
19747;SDS011;10032;51.386;12.516;2023-07-13T04:24:39;3.10;;;2.50;;
19747;SDS011;10032;51.386;12.516;2023-07-13T04:27:04;2.70;;;2.50;;
19747;SDS011;10032;51.386;12.516;2023-07-13T04:29:30;2.75;;;2.55;;
19747;SDS011;10032;51.386;12.516;2023-07-13T04:31:55;5.90;;;2.47;;
19747;SDS011;10032;51.386;12.516;2023-07-13T04:34:21;5.10;;;3.00;;
19747;SDS011;10032;51.386;12.516;2023-07-13T04:36:46;4.68;;;2.30;;
19747;SDS011;10032;51.386;12.516;2023-07-13T04:39:11;3.70;;;2.60;;
19747;SDS011;10032;51.386;12.516;2023-07-13T04:41:37;2.97;;;2.65;;
19747;SDS011;10032;51.386;12.516;2023-07-13T04:44:02;3.40;;;3.08;;
19747;SDS011;10032;51.386;12.516;2023-07-13T04:46:28;2.97;;;2.60;;
19747;SDS011;10032;51.386;12.516;2023-07-13T04:48:53;2.97;;;2.42;;
19747;SDS011;10032;51.386;12.516;2023-07-13T04:51:19;2.95;;;2.65;;
19747;SDS011;10032;51.386;12.516;2023-07-13T04:53:44;4.20;;;2.33;;
19747;SDS011;10032;51.386;12.516;2023-07-13T04:56:10;3.78;;;2.70;;
19747;SDS011;10032;51.386;12.516;2023-07-13T04:58:35;2.75;;;2.55;;
19747;SDS011;10032;51.386;12.516;2023-07-13T05:01:04;2.00;;;1.90;;
19747;SDS011;10032;51.386;12.516;2023-07-13T05:03:31;3.05;;;2.25;;
19747;SDS011;10032;51.386;12.516;2023-07-13T05:05:57;2.63;;;2.40;;
19747;SDS011;10032;51.386;12.516;2023-07-13T05:08:24;2.10;;;1.90;;
19747;SDS011;10032;51.386;12.516;2023-07-13T05:10:50;2.72;;;2.53;;
19747;SDS011;10032;51.386;12.516;2023-07-13T05:13:16;2.80;;;2.03;;
19747;SDS011;10032;51.386;12.516;2023-07-13T05:15:41;4.57;;;2.50;;
19747;SDS011;10032;51.386;12.516;2023-07-13T05:18:07;2.85;;;2.40;;
19747;SDS011;10032;51.386;12.516;2023-07-13T05:20:32;3.28;;;2.10;;
19747;SDS011;10032;51.386;12.516;2023-07-13T05:22:57;2.60;;;2.40;;
19747;SDS011;10032;51.386;12.516;2023-07-13T05:25:23;2.90;;;2.63;;
19747;SDS011;10032;51.386;12.516;2023-07-13T05:27:48;3.47;;;2.35;;
19747;SDS011;10032;51.386;12.516;2023-07-13T05:30:14;5.07;;;2.45;;
19747;SDS011;10032;51.386;12.516;2023-07-13T05:32:39;6.85;;;2.60;;
19747;SDS011;10032;51.386;12.516;2023-07-13T05:35:06;4.53;;;2.00;;
19747;SDS011;10032;51.386;12.516;2023-07-13T05:37:32;3.50;;;2.17;;
19747;SDS011;10032;51.386;12.516;2023-07-13T05:39:57;2.60;;;2.30;;
19747;SDS011;10032;51.386;12.516;2023-07-13T05:42:22;11.98;;;3.17;;
19747;SDS011;10032;51.386;12.516;2023-07-13T05:44:48;4.60;;;2.15;;
19747;SDS011;10032;51.386;12.516;2023-07-13T05:47:13;6.55;;;2.35;;
19747;SDS011;10032;51.386;12.516;2023-07-13T05:49:40;1.95;;;1.52;;
19747;SDS011;10032;51.386;12.516;2023-07-13T05:52:05;2.60;;;1.90;;
19747;SDS011;10032;51.386;12.516;2023-07-13T05:54:31;2.40;;;1.85;;
19747;SDS011;10032;51.386;12.516;2023-07-13T05:56:56;4.50;;;2.05;;
19747;SDS011;10032;51.386;12.516;2023-07-13T05:59:22;1.67;;;1.58;;
19747;SDS011;10032;51.386;12.516;2023-07-13T06:01:47;1.88;;;1.73;;
19747;SDS011;10032;51.386;12.516;2023-07-13T06:04:13;2.30;;;2.08;;
19747;SDS011;10032;51.386;12.516;2023-07-13T06:06:39;2.55;;;1.90;;
19747;SDS011;10032;51.386;12.516;2023-07-13T06:09:04;7.13;;;2.00;;
19747;SDS011;10032;51.386;12.516;2023-07-13T06:11:30;2.65;;;2.08;;
19747;SDS011;10032;51.386;12.516;2023-07-13T06:13:55;2.95;;;1.90;;
19747;SDS011;10032;51.386;12.516;2023-07-13T06:16:21;5.63;;;2.22;;
19747;SDS011;10032;51.386;12.516;2023-07-13T06:18:46;3.60;;;2.20;;
19747;SDS011;10032;51.386;12.516;2023-07-13T06:21:13;2.85;;;1.77;;
19747;SDS011;10032;51.386;12.516;2023-07-13T06:23:40;4.45;;;2.08;;
19747;SDS011;10032;51.386;12.516;2023-07-13T06:26:05;3.45;;;2.00;;
19747;SDS011;10032;51.386;12.516;2023-07-13T06:28:32;3.85;;;1.88;;
19747;SDS011;10032;51.386;12.516;2023-07-13T06:30:58;5.28;;;1.80;;
19747;SDS011;10032;51.386;12.516;2023-07-13T06:33:24;2.38;;;1.95;;
19747;SDS011;10032;51.386;12.516;2023-07-13T06:35:49;2.65;;;2.35;;
19747;SDS011;10032;51.386;12.516;2023-07-13T06:38:15;2.00;;;1.70;;
19747;SDS011;10032;51.386;12.516;2023-07-13T06:40:40;2.92;;;2.38;;
19747;SDS011;10032;51.386;12.516;2023-07-13T06:43:06;3.17;;;1.50;;
19747;SDS011;10032;51.386;12.516;2023-07-13T06:45:33;2.40;;;1.77;;
19747;SDS011;10032;51.386;12.516;2023-07-13T06:48:10;2.10;;;1.90;;
19747;SDS011;10032;51.386;12.516;2023-07-13T06:50:36;2.25;;;2.05;;
19747;SDS011;10032;51.386;12.516;2023-07-13T06:53:02;2.53;;;1.58;;
19747;SDS011;10032;51.386;12.516;2023-07-13T06:55:27;3.83;;;2.10;;
19747;SDS011;10032;51.386;12.516;2023-07-13T06:57:52;3.40;;;1.85;;
19747;SDS011;10032;51.386;12.516;2023-07-13T07:00:18;2.60;;;1.73;;
19747;SDS011;10032;51.386;12.516;2023-07-13T07:02:43;2.38;;;2.00;;
19747;SDS011;10032;51.386;12.516;2023-07-13T07:05:09;2.50;;;1.50;;
19747;SDS011;10032;51.386;12.516;2023-07-13T07:07:34;1.65;;;1.30;;
19747;SDS011;10032;51.386;12.516;2023-07-13T07:09:59;3.20;;;1.67;;
19747;SDS011;10032;51.386;12.516;2023-07-13T07:12:25;2.42;;;1.67;;
19747;SDS011;10032;51.386;12.516;2023-07-13T07:14:50;1.98;;;1.38;;
19747;SDS011;10032;51.386;12.516;2023-07-13T07:17:16;1.30;;;1.20;;
19747;SDS011;10032;51.386;12.516;2023-07-13T07:19:41;3.95;;;1.42;;
19747;SDS011;10032;51.386;12.516;2023-07-13T07:22:06;3.00;;;1.30;;
19747;SDS011;10032;51.386;12.516;2023-07-13T07:24:32;2.45;;;1.48;;
19747;SDS011;10032;51.386;12.516;2023-07-13T07:26:57;1.73;;;1.55;;
19747;SDS011;10032;51.386;12.516;2023-07-13T07:29:23;2.05;;;1.70;;
19747;SDS011;10032;51.386;12.516;2023-07-13T07:31:51;2.30;;;1.50;;
19747;SDS011;10032;51.386;12.516;2023-07-13T07:34:17;1.88;;;1.20;;
19747;SDS011;10032;51.386;12.516;2023-07-13T07:36:42;5.03;;;2.10;;
19747;SDS011;10032;51.386;12.516;2023-07-13T07:39:07;2.38;;;1.50;;
19747;SDS011;10032;51.386;12.516;2023-07-13T07:41:33;3.25;;;1.50;;
19747;SDS011;10032;51.386;12.516;2023-07-13T07:43:58;2.45;;;1.73;;
19747;SDS011;10032;51.386;12.516;2023-07-13T07:46:23;2.53;;;1.90;;
19747;SDS011;10032;51.386;12.516;2023-07-13T07:48:49;5.70;;;2.40;;
19747;SDS011;10032;51.386;12.516;2023-07-13T07:51:14;2.83;;;1.70;;
19747;SDS011;10032;51.386;12.516;2023-07-13T07:53:40;4.47;;;1.90;;
19747;SDS011;10032;51.386;12.516;2023-07-13T07:56:05;1.52;;;1.33;;
19747;SDS011;10032;51.386;12.516;2023-07-13T07:58:31;3.15;;;1.60;;
19747;SDS011;10032;51.386;12.516;2023-07-13T08:01:05;4.25;;;1.60;;
19747;SDS011;10032;51.386;12.516;2023-07-13T08:03:31;9.38;;;2.22;;
19747;SDS011;10032;51.386;12.516;2023-07-13T08:05:56;4.60;;;1.83;;
19747;SDS011;10032;51.386;12.516;2023-07-13T08:08:22;3.13;;;1.48;;
19747;SDS011;10032;51.386;12.516;2023-07-13T08:10:47;2.40;;;1.52;;
19747;SDS011;10032;51.386;12.516;2023-07-13T08:13:13;3.90;;;1.85;;
19747;SDS011;10032;51.386;12.516;2023-07-13T08:15:38;3.75;;;1.65;;
19747;SDS011;10032;51.386;12.516;2023-07-13T08:18:03;3.25;;;1.40;;
19747;SDS011;10032;51.386;12.516;2023-07-13T08:20:29;2.70;;;1.70;;
19747;SDS011;10032;51.386;12.516;2023-07-13T08:22:54;3.17;;;1.70;;
19747;SDS011;10032;51.386;12.516;2023-07-13T08:25:20;2.22;;;1.50;;
19747;SDS011;10032;51.386;12.516;2023-07-13T08:27:46;2.20;;;1.73;;
19747;SDS011;10032;51.386;12.516;2023-07-13T08:30:12;3.83;;;1.60;;
19747;SDS011;10032;51.386;12.516;2023-07-13T08:32:37;1.77;;;1.67;;
19747;SDS011;10032;51.386;12.516;2023-07-13T08:35:03;1.33;;;1.23;;
19747;SDS011;10032;51.386;12.516;2023-07-13T08:37:30;2.13;;;1.45;;
19747;SDS011;10032;51.386;12.516;2023-07-13T08:39:55;2.85;;;1.73;;
19747;SDS011;10032;51.386;12.516;2023-07-13T08:42:30;3.00;;;1.58;;
19747;SDS011;10032;51.386;12.516;2023-07-13T08:47:26;2.75;;;1.60;;
19747;SDS011;10032;51.386;12.516;2023-07-13T08:49:55;4.07;;;1.98;;
19747;SDS011;10032;51.386;12.516;2023-07-13T08:52:31;1.77;;;1.63;;
19747;SDS011;10032;51.386;12.516;2023-07-13T08:55:13;2.83;;;1.17;;
19747;SDS011;10032;51.386;12.516;2023-07-13T08:57:48;1.65;;;1.55;;
19747;SDS011;10032;51.386;12.516;2023-07-13T09:00:25;1.55;;;1.15;;
19747;SDS011;10032;51.386;12.516;2023-07-13T09:03:03;2.03;;;1.40;;
19747;SDS011;10032;51.386;12.516;2023-07-13T09:05:40;1.20;;;1.10;;
19747;SDS011;10032;51.386;12.516;2023-07-13T09:10:45;1.48;;;1.38;;
19747;SDS011;10032;51.386;12.516;2023-07-13T09:15:48;5.47;;;1.52;;
19747;SDS011;10032;51.386;12.516;2023-07-13T09:18:18;2.40;;;1.45;;
19747;SDS011;10032;51.386;12.516;2023-07-13T09:20:49;4.28;;;1.50;;
19747;SDS011;10032;51.386;12.516;2023-07-13T09:23:20;1.50;;;1.30;;
19747;SDS011;10032;51.386;12.516;2023-07-13T09:25:49;2.55;;;1.42;;
19747;SDS011;10032;51.386;12.516;2023-07-13T09:28:28;1.23;;;1.08;;
19747;SDS011;10032;51.386;12.516;2023-07-13T09:33:28;1.55;;;1.20;;
19747;SDS011;10032;51.386;12.516;2023-07-13T09:35:56;2.10;;;1.17;;
19747;SDS011;10032;51.386;12.516;2023-07-13T09:38:27;1.60;;;1.50;;
19747;SDS011;10032;51.386;12.516;2023-07-13T09:41:22;2.47;;;1.35;;
19747;SDS011;10032;51.386;12.516;2023-07-13T09:44:01;2.13;;;1.33;;
19747;SDS011;10032;51.386;12.516;2023-07-13T09:46:38;1.85;;;1.33;;
19747;SDS011;10032;51.386;12.516;2023-07-13T09:49:05;4.07;;;1.50;;
19747;SDS011;10032;51.386;12.516;2023-07-13T09:51:30;4.05;;;1.40;;
19747;SDS011;10032;51.386;12.516;2023-07-13T09:53:56;3.08;;;1.50;;
19747;SDS011;10032;51.386;12.516;2023-07-13T09:56:23;6.78;;;1.48;;
19747;SDS011;10032;51.386;12.516;2023-07-13T09:58:52;1.65;;;1.45;;
19747;SDS011;10032;51.386;12.516;2023-07-13T10:01:30;4.05;;;1.70;;
19747;SDS011;10032;51.386;12.516;2023-07-13T10:03:58;2.55;;;1.38;;
19747;SDS011;10032;51.386;12.516;2023-07-13T10:06:24;4.93;;;1.50;;
19747;SDS011;10032;51.386;12.516;2023-07-13T10:08:51;1.63;;;1.40;;
19747;SDS011;10032;51.386;12.516;2023-07-13T10:13:53;2.17;;;1.33;;
19747;SDS011;10032;51.386;12.516;2023-07-13T10:16:21;3.20;;;1.52;;
19747;SDS011;10032;51.386;12.516;2023-07-13T10:18:50;2.50;;;1.50;;
19747;SDS011;10032;51.386;12.516;2023-07-13T10:21:20;4.78;;;2.03;;
19747;SDS011;10032;51.386;12.516;2023-07-13T10:23:51;1.95;;;1.30;;
19747;SDS011;10032;51.386;12.516;2023-07-13T10:26:26;1.83;;;1.45;;
19747;SDS011;10032;51.386;12.516;2023-07-13T10:28:56;2.95;;;1.42;;
19747;SDS011;10032;51.386;12.516;2023-07-13T10:31:26;3.58;;;1.40;;
19747;SDS011;10032;51.386;12.516;2023-07-13T10:33:51;1.98;;;1.20;;
19747;SDS011;10032;51.386;12.516;2023-07-13T10:38:55;1.92;;;1.27;;
19747;SDS011;10032;51.386;12.516;2023-07-13T10:41:24;3.45;;;1.40;;
19747;SDS011;10032;51.386;12.516;2023-07-13T10:43:53;3.22;;;1.30;;
19747;SDS011;10032;51.386;12.516;2023-07-13T10:46:23;3.45;;;1.70;;
19747;SDS011;10032;51.386;12.516;2023-07-13T10:49:01;2.35;;;1.65;;
19747;SDS011;10032;51.386;12.516;2023-07-13T10:51:30;1.45;;;1.20;;
19747;SDS011;10032;51.386;12.516;2023-07-13T10:56:52;2.58;;;1.85;;
19747;SDS011;10032;51.386;12.516;2023-07-13T10:59:33;3.40;;;1.20;;
19747;SDS011;10032;51.386;12.516;2023-07-13T11:04:27;1.23;;;1.15;;
19747;SDS011;10032;51.386;12.516;2023-07-13T11:07:09;1.67;;;1.35;;
19747;SDS011;10032;51.386;12.516;2023-07-13T11:09:43;4.43;;;1.40;;
19747;SDS011;10032;51.386;12.516;2023-07-13T11:14:43;2.17;;;1.70;;
19747;SDS011;10032;51.386;12.516;2023-07-13T11:20:07;1.25;;;1.10;;
19747;SDS011;10032;51.386;12.516;2023-07-13T11:22:53;2.45;;;1.40;;
19747;SDS011;10032;51.386;12.516;2023-07-13T11:25:34;2.20;;;1.42;;
19747;SDS011;10032;51.386;12.516;2023-07-13T11:38:42;1.50;;;1.23;;
19747;SDS011;10032;51.386;12.516;2023-07-13T11:41:24;1.75;;;1.15;;
19747;SDS011;10032;51.386;12.516;2023-07-13T11:43:54;1.27;;;1.13;;
19747;SDS011;10032;51.386;12.516;2023-07-13T11:46:21;3.10;;;1.30;;
19747;SDS011;10032;51.386;12.516;2023-07-13T11:48:50;3.80;;;1.58;;
19747;SDS011;10032;51.386;12.516;2023-07-13T11:51:19;2.53;;;1.33;;
19747;SDS011;10032;51.386;12.516;2023-07-13T11:53:49;3.65;;;1.00;;
19747;SDS011;10032;51.386;12.516;2023-07-13T11:56:17;2.15;;;1.08;;
19747;SDS011;10032;51.386;12.516;2023-07-13T11:58:42;1.05;;;0.70;;
19747;SDS011;10032;51.386;12.516;2023-07-13T12:01:15;1.30;;;1.20;;
19747;SDS011;10032;51.386;12.516;2023-07-13T12:03:44;1.85;;;1.58;;
19747;SDS011;10032;51.386;12.516;2023-07-13T12:06:27;1.92;;;1.42;;
19747;SDS011;10032;51.386;12.516;2023-07-13T12:08:58;1.83;;;1.23;;
19747;SDS011;10032;51.386;12.516;2023-07-13T12:11:25;2.67;;;1.05;;
19747;SDS011;10032;51.386;12.516;2023-07-13T12:13:51;1.92;;;1.25;;
19747;SDS011;10032;51.386;12.516;2023-07-13T12:16:22;1.25;;;1.15;;
19747;SDS011;10032;51.386;12.516;2023-07-13T12:18:58;2.75;;;1.60;;
19747;SDS011;10032;51.386;12.516;2023-07-13T12:21:32;4.40;;;1.38;;
19747;SDS011;10032;51.386;12.516;2023-07-13T12:23:59;1.20;;;1.05;;
19747;SDS011;10032;51.386;12.516;2023-07-13T12:26:27;2.20;;;1.15;;
19747;SDS011;10032;51.386;12.516;2023-07-13T12:28:55;6.05;;;1.15;;
19747;SDS011;10032;51.386;12.516;2023-07-13T12:31:25;1.10;;;0.90;;
19747;SDS011;10032;51.386;12.516;2023-07-13T12:34:11;1.13;;;1.00;;
19747;SDS011;10032;51.386;12.516;2023-07-13T12:39:24;1.35;;;0.98;;
19747;SDS011;10032;51.386;12.516;2023-07-13T12:42:09;1.45;;;1.25;;
19747;SDS011;10032;51.386;12.516;2023-07-13T12:44:40;3.58;;;1.20;;
19747;SDS011;10032;51.386;12.516;2023-07-13T12:47:09;1.00;;;1.00;;
19747;SDS011;10032;51.386;12.516;2023-07-13T12:49:40;2.92;;;1.02;;
19747;SDS011;10032;51.386;12.516;2023-07-13T12:52:15;2.58;;;1.40;;
19747;SDS011;10032;51.386;12.516;2023-07-13T12:54:52;3.10;;;1.15;;
19747;SDS011;10032;51.386;12.516;2023-07-13T12:57:19;1.40;;;1.15;;
19747;SDS011;10032;51.386;12.516;2023-07-13T12:59:44;1.33;;;1.10;;
19747;SDS011;10032;51.386;12.516;2023-07-13T13:02:33;0.90;;;0.90;;
19747;SDS011;10032;51.386;12.516;2023-07-13T13:05:00;1.02;;;0.77;;
19747;SDS011;10032;51.386;12.516;2023-07-13T13:07:28;0.80;;;0.80;;
19747;SDS011;10032;51.386;12.516;2023-07-13T13:09:54;1.88;;;1.00;;
19747;SDS011;10032;51.386;12.516;2023-07-13T13:12:21;2.35;;;0.82;;
19747;SDS011;10032;51.386;12.516;2023-07-13T13:14:49;2.65;;;0.80;;
19747;SDS011;10032;51.386;12.516;2023-07-13T13:17:22;1.90;;;0.80;;
19747;SDS011;10032;51.386;12.516;2023-07-13T13:19:50;5.75;;;0.80;;
19747;SDS011;10032;51.386;12.516;2023-07-13T13:22:19;0.77;;;0.60;;
19747;SDS011;10032;51.386;12.516;2023-07-13T13:24:44;1.00;;;0.90;;
19747;SDS011;10032;51.386;12.516;2023-07-13T13:27:22;0.98;;;0.80;;
19747;SDS011;10032;51.386;12.516;2023-07-13T13:29:49;3.17;;;1.15;;
19747;SDS011;10032;51.386;12.516;2023-07-13T13:32:16;1.13;;;0.80;;
19747;SDS011;10032;51.386;12.516;2023-07-13T13:34:42;1.35;;;0.68;;
19747;SDS011;10032;51.386;12.516;2023-07-13T13:37:16;1.15;;;0.75;;
19747;SDS011;10032;51.386;12.516;2023-07-13T13:39:44;2.83;;;0.88;;
19747;SDS011;10032;51.386;12.516;2023-07-13T13:42:10;1.27;;;0.80;;
19747;SDS011;10032;51.386;12.516;2023-07-13T13:44:35;1.88;;;0.90;;
19747;SDS011;10032;51.386;12.516;2023-07-13T13:47:01;1.73;;;0.85;;
19747;SDS011;10032;51.386;12.516;2023-07-13T13:49:27;1.90;;;0.88;;
19747;SDS011;10032;51.386;12.516;2023-07-13T13:51:54;1.48;;;1.10;;
19747;SDS011;10032;51.386;12.516;2023-07-13T13:54:21;2.05;;;0.90;;
19747;SDS011;10032;51.386;12.516;2023-07-13T13:56:47;2.15;;;1.08;;
19747;SDS011;10032;51.386;12.516;2023-07-13T13:59:15;0.73;;;0.73;;
19747;SDS011;10032;51.386;12.516;2023-07-13T14:01:40;1.20;;;1.02;;
19747;SDS011;10032;51.386;12.516;2023-07-13T14:04:09;1.77;;;0.85;;
19747;SDS011;10032;51.386;12.516;2023-07-13T14:06:40;1.25;;;1.08;;
19747;SDS011;10032;51.386;12.516;2023-07-13T14:09:08;1.10;;;0.73;;
19747;SDS011;10032;51.386;12.516;2023-07-13T14:11:36;1.23;;;0.68;;
19747;SDS011;10032;51.386;12.516;2023-07-13T14:14:02;1.48;;;0.90;;
19747;SDS011;10032;51.386;12.516;2023-07-13T14:16:30;0.95;;;0.52;;
19747;SDS011;10032;51.386;12.516;2023-07-13T14:18:58;1.02;;;1.00;;
19747;SDS011;10032;51.386;12.516;2023-07-13T14:21:25;2.67;;;1.00;;
19747;SDS011;10032;51.386;12.516;2023-07-13T14:23:52;1.00;;;0.60;;
19747;SDS011;10032;51.386;12.516;2023-07-13T14:28:48;1.10;;;0.85;;
19747;SDS011;10032;51.386;12.516;2023-07-13T14:31:17;0.82;;;0.82;;
19747;SDS011;10032;51.386;12.516;2023-07-13T14:33:44;1.92;;;0.70;;
19747;SDS011;10032;51.386;12.516;2023-07-13T14:36:20;2.55;;;0.80;;
19747;SDS011;10032;51.386;12.516;2023-07-13T14:38:50;1.25;;;0.90;;
19747;SDS011;10032;51.386;12.516;2023-07-13T14:41:15;1.13;;;0.88;;
19747;SDS011;10032;51.386;12.516;2023-07-13T14:43:41;1.02;;;0.85;;
19747;SDS011;10032;51.386;12.516;2023-07-13T14:46:07;0.80;;;0.80;;
19747;SDS011;10032;51.386;12.516;2023-07-13T14:48:43;1.20;;;0.77;;
19747;SDS011;10032;51.386;12.516;2023-07-13T14:51:09;2.75;;;1.23;;
19747;SDS011;10032;51.386;12.516;2023-07-13T14:53:35;1.67;;;0.70;;
19747;SDS011;10032;51.386;12.516;2023-07-13T14:56:07;1.92;;;0.90;;
19747;SDS011;10032;51.386;12.516;2023-07-13T14:58:35;1.10;;;0.70;;
19747;SDS011;10032;51.386;12.516;2023-07-13T15:01:00;1.20;;;0.90;;
19747;SDS011;10032;51.386;12.516;2023-07-13T15:03:26;3.15;;;1.00;;
19747;SDS011;10032;51.386;12.516;2023-07-13T15:05:51;0.85;;;0.75;;
19747;SDS011;10032;51.386;12.516;2023-07-13T15:08:18;0.80;;;0.80;;
19747;SDS011;10032;51.386;12.516;2023-07-13T15:10:43;0.80;;;0.63;;
19747;SDS011;10032;51.386;12.516;2023-07-13T15:13:14;2.13;;;0.90;;
19747;SDS011;10032;51.386;12.516;2023-07-13T15:15:49;1.42;;;1.00;;
19747;SDS011;10032;51.386;12.516;2023-07-13T15:18:18;0.68;;;0.68;;